Time,TemperatureF,DewpointF,PressureIn,WindDirection,WindDirectionDegrees,WindSpeedMPH,WindSpeedGustMPH,Humidity,HourlyPrecipIn,Conditions,Clouds,dailyrainin,SoftwareType,DateUTC
2013-06-11 00:09:00,78.6,76.0,30.00,ESE,117,1.0,3.0,90,0.00,,,0.15,weatherlink.com 1.10,2013-06-11 04:09:00,
2013-06-11 00:24:00,78.5,76.0,29.99,ENE,70,3.0,4.0,91,0.00,,,0.15,weatherlink.com 1.10,2013-06-11 04:24:00,
2013-06-11 00:39:00,78.6,76.0,29.98,East,101,0.0,3.0,90,0.00,,,0.15,weatherlink.com 1.10,2013-06-11 04:39:00,
2013-06-11 00:54:00,78.3,76.0,29.98,ESE,103,4.0,4.0,91,0.00,,,0.15,weatherlink.com 1.10,2013-06-11 04:54:00,
2013-06-11 01:09:00,78.5,75.0,29.97,East,94,1.0,4.0,90,0.00,,,0.15,weatherlink.com 1.10,2013-06-11 05:09:00,
2013-06-11 01:24:00,78.2,75.0,29.97,East,89,0.0,1.0,90,0.00,,,0.15,weatherlink.com 1.10,2013-06-11 05:24:00,
2013-06-11 01:39:00,77.4,75.0,29.96,East,89,0.0,0.0,91,0.00,,,0.15,weatherlink.com 1.10,2013-06-11 05:39:00,
2013-06-11 01:54:00,77.5,75.0,29.96,East,91,1.0,3.0,93,0.00,,,0.15,weatherlink.com 1.10,2013-06-11 05:54:00,
2013-06-11 02:09:00,77.7,75.0,29.96,NE,53,4.0,4.0,92,0.03,,,0.18,weatherlink.com 1.10,2013-06-11 06:09:00,
2013-06-11 02:24:00,77.4,75.0,29.95,NE,56,2.0,4.0,93,0.04,,,0.19,weatherlink.com 1.10,2013-06-11 06:24:00,
2013-06-11 02:39:00,76.9,75.0,29.95,East,100,0.0,1.0,93,0.04,,,0.19,weatherlink.com 1.10,2013-06-11 06:39:00,
2013-06-11 02:54:00,76.4,74.0,29.95,East,100,0.0,0.0,93,0.04,,,0.19,weatherlink.com 1.10,2013-06-11 06:54:00,
2013-06-11 03:09:00,76.3,75.0,29.94,East,100,0.0,0.0,94,0.01,,,0.19,weatherlink.com 1.10,2013-06-11 07:09:00,
2013-06-11 03:24:00,76.0,74.0,29.94,East,100,0.0,0.0,94,0.00,,,0.19,weatherlink.com 1.10,2013-06-11 07:24:00,
2013-06-11 03:39:00,75.8,74.0,29.95,SE,135,0.0,0.0,94,0.00,,,0.19,weatherlink.com 1.10,2013-06-11 07:39:00,
2013-06-11 03:54:00,75.5,74.0,29.95,SE,139,0.0,0.0,94,0.00,,,0.19,weatherlink.com 1.10,2013-06-11 07:54:00,
2013-06-11 04:09:00,75.3,74.0,29.95,SSE,166,0.0,1.0,94,0.00,,,0.19,weatherlink.com 1.10,2013-06-11 08:09:00,
2013-06-11 04:24:00,75.4,74.0,29.95,SE,124,0.0,0.0,94,0.01,,,0.20,weatherlink.com 1.10,2013-06-11 08:24:00,
2013-06-11 04:39:00,75.6,74.0,29.95,SE,124,0.0,0.0,94,0.01,,,0.20,weatherlink.com 1.10,2013-06-11 08:39:00,
2013-06-11 04:54:00,75.8,74.0,29.95,ESE,122,0.0,0.0,94,0.01,,,0.20,weatherlink.com 1.10,2013-06-11 08:54:00,
2013-06-11 05:09:00,76.5,75.0,29.96,East,86,1.0,3.0,95,0.01,,,0.20,weatherlink.com 1.10,2013-06-11 09:09:00,
2013-06-11 05:24:00,77.3,75.0,29.96,ENE,73,4.0,6.0,93,0.00,,,0.20,weatherlink.com 1.10,2013-06-11 09:24:00,
2013-06-11 05:39:00,77.8,75.0,29.96,ENE,73,5.0,5.0,92,0.00,,,0.20,weatherlink.com 1.10,2013-06-11 09:39:00,
2013-06-11 05:54:00,77.9,75.0,29.97,ESE,113,3.0,4.0,91,0.00,,,0.20,weatherlink.com 1.10,2013-06-11 09:54:00,
2013-06-11 06:09:00,77.8,75.0,29.97,East,83,1.0,4.0,91,0.00,,,0.20,weatherlink.com 1.10,2013-06-11 10:09:00,
2013-06-11 06:24:00,78.1,75.0,29.98,SE,138,0.0,5.0,91,0.00,,,0.20,weatherlink.com 1.10,2013-06-11 10:24:00,
2013-06-11 06:39:00,77.9,75.0,29.98,SE,139,0.0,0.0,91,0.00,,,0.20,weatherlink.com 1.10,2013-06-11 10:39:00,
2013-06-11 06:54:00,78.1,75.0,29.99,East,100,1.0,2.0,91,0.00,,,0.20,weatherlink.com 1.10,2013-06-11 10:54:00,
2013-06-11 07:09:00,78.8,76.0,29.99,East,86,1.0,3.0,90,0.00,,,0.20,weatherlink.com 1.10,2013-06-11 11:09:00,
2013-06-11 07:24:00,79.5,76.0,30.00,East,101,0.0,3.0,89,0.00,,,0.20,weatherlink.com 1.10,2013-06-11 11:24:00,
2013-06-11 07:39:00,80.6,77.0,30.00,East,91,3.0,4.0,87,0.00,,,0.20,weatherlink.com 1.10,2013-06-11 11:39:00,
2013-06-11 07:54:00,80.8,76.0,30.00,East,88,1.0,2.0,86,0.00,,,0.20,weatherlink.com 1.10,2013-06-11 11:54:00,
2013-06-11 08:09:00,80.4,77.0,30.00,ESE,106,2.0,4.0,88,0.00,,,0.20,weatherlink.com 1.10,2013-06-11 12:09:00,
2013-06-11 08:24:00,80.9,78.0,30.00,ESE,115,0.0,3.0,89,0.00,,,0.20,weatherlink.com 1.10,2013-06-11 12:24:00,
2013-06-11 08:39:00,81.1,78.0,30.00,East,94,1.0,5.0,89,0.00,,,0.20,weatherlink.com 1.10,2013-06-11 12:39:00,
2013-06-11 08:54:00,81.6,77.0,30.01,East,95,2.0,7.0,86,0.00,,,0.20,weatherlink.com 1.10,2013-06-11 12:54:00,
2013-06-11 09:09:00,81.8,77.0,30.01,SE,129,6.0,10.0,84,0.00,,,0.20,weatherlink.com 1.10,2013-06-11 13:09:00,
2013-06-11 09:25:00,81.9,77.0,30.02,East,89,3.0,7.0,84,0.00,,,0.20,weatherlink.com 1.10,2013-06-11 13:25:00,
2013-06-11 09:40:00,82.6,77.0,30.02,East,96,5.0,8.0,83,0.00,,,0.20,weatherlink.com 1.10,2013-06-11 13:40:00,
2013-06-11 09:55:00,82.4,76.0,30.02,ENE,76,8.0,11.0,81,0.00,,,0.20,weatherlink.com 1.10,2013-06-11 13:55:00,
2013-06-11 10:10:00,82.9,77.0,30.02,ESE,106,7.0,13.0,81,0.00,,,0.20,weatherlink.com 1.10,2013-06-11 14:10:00,
2013-06-11 10:25:00,83.9,77.0,30.02,SE,141,2.0,15.0,80,0.00,,,0.20,weatherlink.com 1.10,2013-06-11 14:25:00,
2013-06-11 10:40:00,83.3,77.0,30.03,ENE,78,6.0,10.0,81,0.00,,,0.20,weatherlink.com 1.10,2013-06-11 14:40:00,
2013-06-11 10:55:00,81.6,77.0,30.02,SE,136,1.0,8.0,87,0.01,,,0.21,weatherlink.com 1.10,2013-06-11 14:55:00,
2013-06-11 11:10:00,81.3,77.0,30.02,SE,129,3.0,10.0,86,0.01,,,0.21,weatherlink.com 1.10,2013-06-11 15:10:00,
2013-06-11 11:25:00,82.1,77.0,30.02,East,101,6.0,8.0,85,0.01,,,0.21,weatherlink.com 1.10,2013-06-11 15:25:00,
2013-06-11 11:40:00,82.8,77.0,30.02,East,82,2.0,10.0,83,0.01,,,0.21,weatherlink.com 1.10,2013-06-11 15:40:00,
2013-06-11 11:55:00,83.1,77.0,30.02,ENE,75,5.0,11.0,82,0.00,,,0.21,weatherlink.com 1.10,2013-06-11 15:55:00,
2013-06-11 12:10:00,83.9,78.0,30.01,NE,47,5.0,12.0,82,0.00,,,0.21,weatherlink.com 1.10,2013-06-11 16:10:00,
2013-06-11 12:26:00,84.8,78.0,30.01,ENE,64,3.0,10.0,79,0.00,,,0.00,weatherlink.com 1.10,2013-06-11 16:26:00,
2013-06-11 12:40:00,84.8,77.0,30.00,NE,50,4.0,13.0,78,0.00,,,0.00,weatherlink.com 1.10,2013-06-11 16:40:00,
2013-06-11 12:55:00,84.5,77.0,30.00,ENE,73,7.0,13.0,78,0.00,,,0.00,weatherlink.com 1.10,2013-06-11 16:55:00,
2013-06-11 13:10:00,84.1,77.0,29.99,NE,46,8.0,12.0,80,0.00,,,0.00,weatherlink.com 1.10,2013-06-11 17:10:00,
2013-06-11 13:25:00,83.7,77.0,29.99,East,88,8.0,13.0,79,0.00,,,0.00,weatherlink.com 1.10,2013-06-11 17:25:00,
2013-06-11 13:40:00,83.5,77.0,29.99,NE,45,5.0,12.0,81,0.00,,,0.00,weatherlink.com 1.10,2013-06-11 17:40:00,
2013-06-11 13:55:00,83.3,77.0,29.98,ESE,110,5.0,13.0,80,0.00,,,0.00,weatherlink.com 1.10,2013-06-11 17:55:00,
2013-06-11 14:10:00,79.7,75.0,29.99,SE,133,4.0,11.0,86,0.02,,,0.02,weatherlink.com 1.10,2013-06-11 18:10:00,
2013-06-11 14:25:00,79.1,76.0,29.98,East,79,3.0,8.0,91,0.04,,,0.04,weatherlink.com 1.10,2013-06-11 18:25:00,
2013-06-11 14:40:00,80.1,78.0,29.99,East,96,3.0,5.0,92,0.04,,,0.04,weatherlink.com 1.10,2013-06-11 18:40:00,
2013-06-11 14:55:00,78.1,74.0,29.99,NE,49,6.0,11.0,87,0.08,,,0.08,weatherlink.com 1.10,2013-06-11 18:55:00,
2013-06-11 15:10:00,78.1,76.0,29.98,East,83,3.0,6.0,92,0.15,,,0.17,weatherlink.com 1.10,2013-06-11 19:10:00,
2013-06-11 15:25:00,79.6,77.0,29.98,NE,50,2.0,6.0,92,0.13,,,0.17,weatherlink.com 1.10,2013-06-11 19:25:00,
2013-06-11 15:40:00,80.6,78.0,29.98,ENE,73,3.0,7.0,91,0.13,,,0.17,weatherlink.com 1.10,2013-06-11 19:40:00,
2013-06-11 15:55:00,81.3,78.0,29.97,ENE,67,1.0,6.0,90,0.09,,,0.17,weatherlink.com 1.10,2013-06-11 19:55:00,
2013-06-11 17:52:00,80.7,78.0,29.96,East,98,4.0,5.0,90,0.01,,,0.29,weatherlink.com 1.10,2013-06-11 21:52:00,
2013-06-11 18:26:00,80.5,77.0,29.96,East,88,1.0,5.0,88,0.00,,,0.29,weatherlink.com 1.10,2013-06-11 22:26:00,
2013-06-11 18:41:00,80.3,77.0,29.96,NE,56,1.0,5.0,89,0.00,,,0.29,weatherlink.com 1.10,2013-06-11 22:41:00,
2013-06-11 18:56:00,79.7,77.0,29.96,East,90,0.0,4.0,90,0.00,,,0.29,weatherlink.com 1.10,2013-06-11 22:56:00,
2013-06-11 19:11:00,79.5,77.0,29.97,East,83,1.0,2.0,91,0.00,,,0.29,weatherlink.com 1.10,2013-06-11 23:11:00,
2013-06-11 19:26:00,79.4,77.0,29.97,ESE,114,0.0,2.0,91,0.00,,,0.29,weatherlink.com 1.10,2013-06-11 23:26:00,
2013-06-11 19:41:00,79.5,77.0,29.97,East,89,2.0,3.0,91,0.00,,,0.29,weatherlink.com 1.10,2013-06-11 23:41:00,
2013-06-11 19:56:00,78.3,75.0,29.98,East,83,2.0,11.0,90,0.05,,,0.34,weatherlink.com 1.10,2013-06-11 23:56:00,
2013-06-11 20:11:00,77.8,75.0,29.98,East,86,4.0,7.0,92,0.07,,,0.36,weatherlink.com 1.10,2013-06-12 00:11:00,
2013-06-11 20:26:00,77.6,76.0,29.98,ENE,77,3.0,3.0,93,0.08,,,0.37,weatherlink.com 1.10,2013-06-12 00:26:00,
2013-06-11 20:41:00,77.7,76.0,29.98,East,98,2.0,3.0,94,0.08,,,0.37,weatherlink.com 1.10,2013-06-12 00:41:00,
2013-06-11 20:56:00,77.7,76.0,29.99,SE,132,1.0,2.0,95,0.03,,,0.37,weatherlink.com 1.10,2013-06-12 00:56:00,
2013-06-11 21:11:00,77.8,76.0,29.99,ESE,113,1.0,2.0,95,0.01,,,0.37,weatherlink.com 1.10,2013-06-12 01:11:00,
2013-06-11 21:26:00,77.7,76.0,29.99,East,91,2.0,4.0,95,0.01,,,0.38,weatherlink.com 1.10,2013-06-12 01:26:00,
2013-06-11 21:41:00,77.8,76.0,29.99,SE,132,1.0,2.0,95,0.01,,,0.38,weatherlink.com 1.10,2013-06-12 01:41:00,
2013-06-11 21:56:00,78.0,76.0,29.99,East,81,2.0,6.0,94,0.01,,,0.38,weatherlink.com 1.10,2013-06-12 01:56:00,
2013-06-11 22:11:00,78.0,76.0,30.00,East,82,0.0,2.0,94,0.01,,,0.38,weatherlink.com 1.10,2013-06-12 02:11:00,
2013-06-11 22:26:00,77.8,76.0,30.00,ESE,114,1.0,2.0,94,0.00,,,0.38,weatherlink.com 1.10,2013-06-12 02:26:00,
2013-06-11 22:41:00,77.5,76.0,30.01,SE,136,1.0,2.0,94,0.00,,,0.38,weatherlink.com 1.10,2013-06-12 02:41:00,
2013-06-11 22:56:00,77.7,76.0,30.00,East,93,0.0,2.0,94,0.00,,,0.38,weatherlink.com 1.10,2013-06-12 02:56:00,
2013-06-11 23:11:00,78.0,76.0,30.00,East,82,1.0,3.0,94,0.00,,,0.38,weatherlink.com 1.10,2013-06-12 03:11:00,
2013-06-11 23:26:00,78.2,76.0,30.00,East,89,4.0,8.0,94,0.03,,,0.41,weatherlink.com 1.10,2013-06-12 03:26:00,
2013-06-11 23:41:00,78.4,77.0,30.00,ENE,70,2.0,6.0,94,0.03,,,0.41,weatherlink.com 1.10,2013-06-12 03:41:00,
2013-06-11 23:56:00,78.4,76.0,30.00,ENE,76,1.0,4.0,93,0.03,,,0.41,weatherlink.com 1.10,2013-06-12 03:56:00,